sensor_id;sensor_type;location;lat;lon;timestamp;pressure;altitude;pressure_sealevel;temperature;humidity
13486;BME280;6815;59.336;17.998;2024-03-08T00:00:26;91769.28;;;-145.37;85.10
13486;BME280;6815;59.336;17.998;2024-03-08T00:02:52;91785.44;;;-145.37;85.17
13486;BME280;6815;59.336;17.998;2024-03-08T00:05:19;91702.66;;;-145.37;85.44
13486;BME280;6815;59.336;17.998;2024-03-08T00:07:46;91763.25;;;-145.37;85.63
13486;BME280;6815;59.336;17.998;2024-03-08T00:10:13;92251.97;;;-145.37;85.52
13486;BME280;6815;59.336;17.998;2024-03-08T00:12:43;91793.53;;;-145.37;85.12
13486;BME280;6815;59.336;17.998;2024-03-08T00:15:10;91704.66;;;-145.37;84.84
13486;BME280;6815;59.336;17.998;2024-03-08T00:17:43;91068.63;;;-145.37;85.29
13486;BME280;6815;59.336;17.998;2024-03-08T00:20:22;91718.81;;;-145.37;83.97
13486;BME280;6815;59.336;17.998;2024-03-08T00:22:50;91761.22;;;-145.37;83.03
13486;BME280;6815;59.336;17.998;2024-03-08T00:25:16;91759.19;;;-145.37;82.68
13486;BME280;6815;59.336;17.998;2024-03-08T00:27:44;91799.59;;;-145.37;83.70
13486;BME280;6815;59.336;17.998;2024-03-08T00:30:11;91755.16;;;-145.37;84.34
13486;BME280;6815;59.336;17.998;2024-03-08T00:32:38;91791.50;;;-145.37;84.59
13486;BME280;6815;59.336;17.998;2024-03-08T00:35:06;91757.19;;;-145.37;83.44
13486;BME280;6815;59.336;17.998;2024-03-08T00:37:32;91757.19;;;-145.37;82.10
13486;BME280;6815;59.336;17.998;2024-03-08T00:39:59;91747.09;;;-145.37;82.07
13486;BME280;6815;59.336;17.998;2024-03-08T00:42:25;91775.34;;;-145.37;82.32
13486;BME280;6815;59.336;17.998;2024-03-08T00:44:52;91753.13;;;-145.37;82.32
13486;BME280;6815;59.336;17.998;2024-03-08T00:47:17;91732.94;;;-145.37;82.17
13486;BME280;6815;59.336;17.998;2024-03-08T00:49:43;91617.84;;;-145.37;82.47
13486;BME280;6815;59.336;17.998;2024-03-08T00:52:09;91605.72;;;-145.37;82.85
13486;BME280;6815;59.336;17.998;2024-03-08T00:54:37;92219.66;;;-145.37;82.75
13486;BME280;6815;59.336;17.998;2024-03-08T00:57:06;92104.53;;;-145.37;83.17
13486;BME280;6815;59.336;17.998;2024-03-08T00:59:32;91791.50;;;-145.37;83.64
13486;BME280;6815;59.336;17.998;2024-03-08T01:01:58;91801.59;;;-145.37;84.68
13486;BME280;6815;59.336;17.998;2024-03-08T01:04:27;91333.13;;;-145.37;83.83
13486;BME280;6815;59.336;17.998;2024-03-08T01:06:56;91440.16;;;-145.37;82.71
13486;BME280;6815;59.336;17.998;2024-03-08T01:09:25;91777.38;;;-145.37;83.94
13486;BME280;6815;59.336;17.998;2024-03-08T01:11:52;91765.25;;;-145.37;84.14
13486;BME280;6815;59.336;17.998;2024-03-08T01:14:20;91771.31;;;-145.37;84.12
13486;BME280;6815;59.336;17.998;2024-03-08T01:16:48;91698.63;;;-145.37;83.62
13486;BME280;6815;59.336;17.998;2024-03-08T01:19:14;91763.25;;;-145.37;84.35
13486;BME280;6815;59.336;17.998;2024-03-08T01:21:42;91662.25;;;-145.37;83.73
13486;BME280;6815;59.336;17.998;2024-03-08T01:24:10;91765.25;;;-145.37;83.20
13486;BME280;6815;59.336;17.998;2024-03-08T01:26:37;91775.34;;;-145.37;82.89
13486;BME280;6815;59.336;17.998;2024-03-08T01:29:03;91664.28;;;-145.37;82.87
13486;BME280;6815;59.336;17.998;2024-03-08T01:31:29;91795.53;;;-145.37;83.46
13486;BME280;6815;59.336;17.998;2024-03-08T01:33:57;91781.41;;;-145.37;83.92
13486;BME280;6815;59.336;17.998;2024-03-08T01:36:22;91585.53;;;-145.37;83.57
13486;BME280;6815;59.336;17.998;2024-03-08T01:38:51;91775.34;;;-145.37;83.65
13486;BME280;6815;59.336;17.998;2024-03-08T01:41:17;91775.34;;;-145.37;84.06
13486;BME280;6815;59.336;17.998;2024-03-08T01:43:45;92377.19;;;-145.37;85.05
13486;BME280;6815;59.336;17.998;2024-03-08T01:46:18;91763.25;;;-145.37;85.56
13486;BME280;6815;59.336;17.998;2024-03-08T01:48:44;91831.91;;;-145.37;85.94
13486;BME280;6815;59.336;17.998;2024-03-08T01:51:10;91775.34;;;-145.37;85.95
13486;BME280;6815;59.336;17.998;2024-03-08T01:53:37;91773.34;;;-145.37;85.97
13486;BME280;6815;59.336;17.998;2024-03-08T01:56:04;91797.56;;;-145.37;85.60
13486;BME280;6815;59.336;17.998;2024-03-08T01:58:31;91694.56;;;-145.37;85.49
13486;BME280;6815;59.336;17.998;2024-03-08T02:00:58;91730.94;;;-145.37;85.52
13486;BME280;6815;59.336;17.998;2024-03-08T02:03:24;91625.91;;;-145.37;85.08
13486;BME280;6815;59.336;17.998;2024-03-08T02:05:50;91589.56;;;-145.37;85.13
13486;BME280;6815;59.336;17.998;2024-03-08T02:08:17;91619.84;;;-145.37;85.28
13486;BME280;6815;59.336;17.998;2024-03-08T02:10:46;91779.41;;;-145.37;85.16
13486;BME280;6815;59.336;17.998;2024-03-08T02:13:11;91807.66;;;-145.37;85.13
13486;BME280;6815;59.336;17.998;2024-03-08T02:18:19;91734.97;;;-145.37;85.49
13486;BME280;6815;59.336;17.998;2024-03-08T02:20:51;91757.19;;;-145.37;85.39
13486;BME280;6815;59.336;17.998;2024-03-08T02:23:18;91571.41;;;-145.37;85.26
13486;BME280;6815;59.336;17.998;2024-03-08T02:25:44;91775.34;;;-145.37;84.09
13486;BME280;6815;59.336;17.998;2024-03-08T02:28:13;91825.84;;;-145.37;85.77
13486;BME280;6815;59.336;17.998;2024-03-08T02:30:39;92377.19;;;-145.37;85.68
13486;BME280;6815;59.336;17.998;2024-03-08T02:33:07;91842.00;;;-145.37;86.05
13486;BME280;6815;59.336;17.998;2024-03-08T02:35:34;91842.00;;;-145.37;86.44
13486;BME280;6815;59.336;17.998;2024-03-08T02:38:01;91490.63;;;-145.37;86.11
13486;BME280;6815;59.336;17.998;2024-03-08T02:40:26;91625.91;;;-145.37;86.15
13486;BME280;6815;59.336;17.998;2024-03-08T02:42:52;91831.91;;;-145.37;85.83
13486;BME280;6815;59.336;17.998;2024-03-08T02:45:18;91692.56;;;-145.37;86.00
13486;BME280;6815;59.336;17.998;2024-03-08T02:47:43;91290.72;;;-145.37;85.78
13486;BME280;6815;59.336;17.998;2024-03-08T02:50:10;91506.78;;;-145.37;85.79
13486;BME280;6815;59.336;17.998;2024-03-08T02:52:37;91769.28;;;-145.37;85.44
13486;BME280;6815;59.336;17.998;2024-03-08T02:55:04;91609.75;;;-145.37;85.37
13486;BME280;6815;59.336;17.998;2024-03-08T02:57:33;91718.81;;;-145.37;84.37
13486;BME280;6815;59.336;17.998;2024-03-08T02:59:59;91585.53;;;-145.37;84.21
13486;BME280;6815;59.336;17.998;2024-03-08T03:02:27;91765.25;;;-145.37;82.98
13486;BME280;6815;59.336;17.998;2024-03-08T03:04:52;91856.13;;;-145.37;82.20
13486;BME280;6815;59.336;17.998;2024-03-08T03:07:20;91726.88;;;-145.37;82.40
13486;BME280;6815;59.336;17.998;2024-03-08T03:09:47;91676.41;;;-145.37;81.98
13486;BME280;6815;59.336;17.998;2024-03-08T03:12:12;91753.13;;;-145.37;82.44
13486;BME280;6815;59.336;17.998;2024-03-08T03:14:39;91803.63;;;-145.37;83.15
13486;BME280;6815;59.336;17.998;2024-03-08T03:17:05;92571.09;;;-145.37;83.04
13486;BME280;6815;59.336;17.998;2024-03-08T03:19:30;91805.66;;;-145.37;83.75
13486;BME280;6815;59.336;17.998;2024-03-08T03:21:56;91642.06;;;-145.37;84.39
13486;BME280;6815;59.336;17.998;2024-03-08T03:24:22;91839.97;;;-145.37;84.77
13486;BME280;6815;59.336;17.998;2024-03-08T03:26:48;91827.84;;;-145.37;85.22
13486;BME280;6815;59.336;17.998;2024-03-08T03:29:15;91745.06;;;-145.37;84.68
13486;BME280;6815;59.336;17.998;2024-03-08T03:31:43;91474.47;;;-145.37;84.43
13486;BME280;6815;59.336;17.998;2024-03-08T03:34:12;91779.41;;;-145.37;84.08
13486;BME280;6815;59.336;17.998;2024-03-08T03:36:38;91508.78;;;-145.37;84.75
13486;BME280;6815;59.336;17.998;2024-03-08T03:39:08;91821.81;;;-145.37;84.27
13486;BME280;6815;59.336;17.998;2024-03-08T03:41:42;91831.91;;;-145.37;84.27
13486;BME280;6815;59.336;17.998;2024-03-08T03:44:12;91739.00;;;-145.37;84.54
13486;BME280;6815;59.336;17.998;2024-03-08T03:46:42;91686.50;;;-145.37;84.27
13486;BME280;6815;59.336;17.998;2024-03-08T03:49:11;91850.06;;;-145.37;83.84
13486;BME280;6815;59.336;17.998;2024-03-08T03:51:37;92451.94;;;-145.37;84.82
13486;BME280;6815;59.336;17.998;2024-03-08T03:54:03;91805.66;;;-145.37;84.68
13486;BME280;6815;59.336;17.998;2024-03-08T03:56:29;92472.13;;;-145.37;84.57
13486;BME280;6815;59.336;17.998;2024-03-08T03:58:56;91823.81;;;-145.37;84.46
13486;BME280;6815;59.336;17.998;2024-03-08T04:01:22;91379.56;;;-145.37;84.13
13486;BME280;6815;59.336;17.998;2024-03-08T04:03:47;91585.53;;;-145.37;84.09
13486;BME280;6815;59.336;17.998;2024-03-08T04:06:13;91791.50;;;-145.37;83.44
13486;BME280;6815;59.336;17.998;2024-03-08T04:08:39;91609.75;;;-145.37;84.20
13486;BME280;6815;59.336;17.998;2024-03-08T04:11:05;91827.84;;;-145.37;84.47
13486;BME280;6815;59.336;17.998;2024-03-08T04:13:30;91817.75;;;-145.37;84.87
13486;BME280;6815;59.336;17.998;2024-03-08T04:15:56;91759.19;;;-145.37;84.90
13486;BME280;6815;59.336;17.998;2024-03-08T04:18:21;91621.88;;;-145.37;85.04
13486;BME280;6815;59.336;17.998;2024-03-08T04:20:47;91771.31;;;-145.37;85.89
13486;BME280;6815;59.336;17.998;2024-03-08T04:23:13;91702.66;;;-145.37;86.73
13486;BME280;6815;59.336;17.998;2024-03-08T04:25:39;91749.09;;;-145.37;85.84
13486;BME280;6815;59.336;17.998;2024-03-08T04:28:07;91807.66;;;-145.37;85.07
13486;BME280;6815;59.336;17.998;2024-03-08T04:30:35;91710.72;;;-145.37;85.17
13486;BME280;6815;59.336;17.998;2024-03-08T04:33:02;91809.69;;;-145.37;84.90
13486;BME280;6815;59.336;17.998;2024-03-08T04:35:29;91599.66;;;-145.37;85.12
13486;BME280;6815;59.336;17.998;2024-03-08T04:37:56;91833.91;;;-145.37;84.95
13486;BME280;6815;59.336;17.998;2024-03-08T04:40:28;91817.75;;;-145.37;84.69
13486;BME280;6815;59.336;17.998;2024-03-08T04:42:54;91674.38;;;-145.37;85.11
13486;BME280;6815;59.336;17.998;2024-03-08T04:45:20;91902.56;;;-145.37;86.08
13486;BME280;6815;59.336;17.998;2024-03-08T04:47:46;91706.69;;;-145.37;86.22
13486;BME280;6815;59.336;17.998;2024-03-08T04:50:12;91696.59;;;-145.37;85.76
13486;BME280;6815;59.336;17.998;2024-03-08T04:52:37;91749.09;;;-145.37;86.06
13486;BME280;6815;59.336;17.998;2024-03-08T04:55:03;92342.88;;;-145.37;85.75
13486;BME280;6815;59.336;17.998;2024-03-08T04:57:30;91561.31;;;-145.37;85.96
13486;BME280;6815;59.336;17.998;2024-03-08T04:59:56;91670.34;;;-145.37;86.47
13486;BME280;6815;59.336;17.998;2024-03-08T05:02:23;91827.84;;;-145.37;86.90
13486;BME280;6815;59.336;17.998;2024-03-08T05:04:50;91432.06;;;-145.37;86.89
13486;BME280;6815;59.336;17.998;2024-03-08T05:07:19;91783.44;;;-145.37;87.26
13486;BME280;6815;59.336;17.998;2024-03-08T05:09:44;92050.00;;;-145.37;87.87
13486;BME280;6815;59.336;17.998;2024-03-08T05:12:16;91803.63;;;-145.37;86.97
13486;BME280;6815;59.336;17.998;2024-03-08T05:14:42;91835.94;;;-145.37;87.23
13486;BME280;6815;59.336;17.998;2024-03-08T05:17:07;91617.84;;;-145.37;87.42
13486;BME280;6815;59.336;17.998;2024-03-08T05:19:33;91787.47;;;-145.37;88.30
13486;BME280;6815;59.336;17.998;2024-03-08T05:21:59;91775.34;;;-145.37;88.37
13486;BME280;6815;59.336;17.998;2024-03-08T05:24:24;91785.44;;;-145.37;87.32
13486;BME280;6815;59.336;17.998;2024-03-08T05:26:51;91686.50;;;-145.37;88.25
13486;BME280;6815;59.336;17.998;2024-03-08T05:29:18;91781.41;;;-145.37;88.31
13486;BME280;6815;59.336;17.998;2024-03-08T05:31:47;91531.00;;;-145.37;87.21
13486;BME280;6815;59.336;17.998;2024-03-08T05:34:14;91755.16;;;-145.37;87.58
13486;BME280;6815;59.336;17.998;2024-03-08T05:36:42;91995.47;;;-145.37;87.25
13486;BME280;6815;59.336;17.998;2024-03-08T05:39:20;91815.75;;;-145.37;88.10
13486;BME280;6815;59.336;17.998;2024-03-08T05:41:49;91785.44;;;-145.37;87.58
13486;BME280;6815;59.336;17.998;2024-03-08T05:44:15;91545.16;;;-145.37;88.23
13486;BME280;6815;59.336;17.998;2024-03-08T05:46:45;91781.41;;;-145.37;87.46
13486;BME280;6815;59.336;17.998;2024-03-08T05:49:13;91827.84;;;-145.37;88.04
13486;BME280;6815;59.336;17.998;2024-03-08T05:51:39;91823.81;;;-145.37;88.07
13486;BME280;6815;59.336;17.998;2024-03-08T05:54:12;92371.13;;;-145.37;87.59
13486;BME280;6815;59.336;17.998;2024-03-08T05:56:39;92110.59;;;-145.37;87.23
13486;BME280;6815;59.336;17.998;2024-03-08T05:59:07;92498.38;;;-145.37;88.42
13486;BME280;6815;59.336;17.998;2024-03-08T06:01:33;91819.78;;;-145.37;88.33
13486;BME280;6815;59.336;17.998;2024-03-08T06:04:02;91732.94;;;-145.37;88.49
13486;BME280;6815;59.336;17.998;2024-03-08T06:06:28;91563.31;;;-145.37;88.50
13486;BME280;6815;59.336;17.998;2024-03-08T06:08:55;91811.69;;;-145.37;88.73
13486;BME280;6815;59.336;17.998;2024-03-08T06:11:24;91813.72;;;-145.37;89.68
13486;BME280;6815;59.336;17.998;2024-03-08T06:13:52;91739.00;;;-145.37;90.02
13486;BME280;6815;59.336;17.998;2024-03-08T06:16:20;91678.41;;;-145.37;90.04
13486;BME280;6815;59.336;17.998;2024-03-08T06:18:46;91718.81;;;-145.37;89.18
13486;BME280;6815;59.336;17.998;2024-03-08T06:21:12;91747.09;;;-145.37;89.63
13486;BME280;6815;59.336;17.998;2024-03-08T06:23:42;91779.41;;;-145.37;90.05
13486;BME280;6815;59.336;17.998;2024-03-08T06:26:09;91698.63;;;-145.37;88.93
13486;BME280;6815;59.336;17.998;2024-03-08T06:28:35;91807.66;;;-145.37;89.56
13486;BME280;6815;59.336;17.998;2024-03-08T06:31:01;91539.09;;;-145.37;89.09
13486;BME280;6815;59.336;17.998;2024-03-08T06:33:27;92241.88;;;-145.37;89.20
13486;BME280;6815;59.336;17.998;2024-03-08T06:35:53;91722.84;;;-145.37;88.69
13486;BME280;6815;59.336;17.998;2024-03-08T06:38:24;91642.06;;;-145.37;88.71
13486;BME280;6815;59.336;17.998;2024-03-08T06:40:50;92298.44;;;-145.37;88.93
13486;BME280;6815;59.336;17.998;2024-03-08T06:43:16;91718.81;;;-145.37;88.67
13486;BME280;6815;59.336;17.998;2024-03-08T06:45:43;91739.00;;;-145.37;89.06
13486;BME280;6815;59.336;17.998;2024-03-08T06:48:15;91741.03;;;-145.37;89.17
13486;BME280;6815;59.336;17.998;2024-03-08T06:50:40;91694.56;;;-145.37;90.21
13486;BME280;6815;59.336;17.998;2024-03-08T06:53:06;91670.34;;;-145.37;90.71
13486;BME280;6815;59.336;17.998;2024-03-08T06:55:32;91757.19;;;-145.37;91.00
13486;BME280;6815;59.336;17.998;2024-03-08T06:57:58;91728.91;;;-145.37;90.44
13486;BME280;6815;59.336;17.998;2024-03-08T07:00:23;91759.19;;;-145.37;91.22
13486;BME280;6815;59.336;17.998;2024-03-08T07:02:52;91777.38;;;-145.37;91.60
13486;BME280;6815;59.336;17.998;2024-03-08T07:05:19;91757.19;;;-145.37;90.90
13486;BME280;6815;59.336;17.998;2024-03-08T07:07:44;91706.69;;;-145.37;91.71
13486;BME280;6815;59.336;17.998;2024-03-08T07:10:10;91749.09;;;-145.37;91.63
13486;BME280;6815;59.336;17.998;2024-03-08T07:12:37;91759.19;;;-145.37;90.93
13486;BME280;6815;59.336;17.998;2024-03-08T07:15:05;91607.75;;;-145.37;91.64
13486;BME280;6815;59.336;17.998;2024-03-08T07:17:31;91714.78;;;-145.37;92.04
13486;BME280;6815;59.336;17.998;2024-03-08T07:19:56;91718.81;;;-145.37;91.86
13486;BME280;6815;59.336;17.998;2024-03-08T07:22:24;91688.50;;;-145.37;91.01
13486;BME280;6815;59.336;17.998;2024-03-08T07:24:50;91724.88;;;-145.37;91.52
13486;BME280;6815;59.336;17.998;2024-03-08T07:27:40;91706.69;;;-145.37;91.50
13486;BME280;6815;59.336;17.998;2024-03-08T07:30:06;91741.03;;;-145.37;91.40
13486;BME280;6815;59.336;17.998;2024-03-08T07:32:31;91494.66;;;-145.37;91.64
13486;BME280;6815;59.336;17.998;2024-03-08T07:34:58;91686.50;;;-145.37;91.74
13486;BME280;6815;59.336;17.998;2024-03-08T07:37:25;91648.13;;;-145.37;91.70
13486;BME280;6815;59.336;17.998;2024-03-08T07:39:50;91726.88;;;-145.37;91.72
13486;BME280;6815;59.336;17.998;2024-03-08T07:42:17;91714.78;;;-145.37;91.91
13486;BME280;6815;59.336;17.998;2024-03-08T07:44:44;91694.56;;;-145.37;92.27
13486;BME280;6815;59.336;17.998;2024-03-08T07:47:11;91726.88;;;-145.37;91.97
13486;BME280;6815;59.336;17.998;2024-03-08T07:49:37;91730.94;;;-145.37;91.88
13486;BME280;6815;59.336;17.998;2024-03-08T07:52:04;91656.22;;;-145.37;91.80
13486;BME280;6815;59.336;17.998;2024-03-08T07:54:30;91700.63;;;-145.37;91.92
13486;BME280;6815;59.336;17.998;2024-03-08T07:56:56;91698.63;;;-145.37;91.33
13486;BME280;6815;59.336;17.998;2024-03-08T07:59:21;91391.69;;;-145.37;91.11
13486;BME280;6815;59.336;17.998;2024-03-08T08:01:47;91710.72;;;-145.37;91.06
13486;BME280;6815;59.336;17.998;2024-03-08T08:04:13;91531.00;;;-145.37;91.40
13486;BME280;6815;59.336;17.998;2024-03-08T08:06:41;91688.50;;;-145.37;90.96
13486;BME280;6815;59.336;17.998;2024-03-08T08:09:07;91680.44;;;-145.37;91.62
13486;BME280;6815;59.336;17.998;2024-03-08T08:11:52;91619.84;;;-145.37;91.52
13486;BME280;6815;59.336;17.998;2024-03-08T08:14:18;91652.16;;;-145.37;90.77
13486;BME280;6815;59.336;17.998;2024-03-08T08:16:43;91682.47;;;-145.37;90.88
13486;BME280;6815;59.336;17.998;2024-03-08T08:19:10;91678.41;;;-145.37;90.71
13486;BME280;6815;59.336;17.998;2024-03-08T08:21:36;91611.78;;;-145.37;90.44
13486;BME280;6815;59.336;17.998;2024-03-08T08:24:03;91575.44;;;-145.37;90.37
13486;BME280;6815;59.336;17.998;2024-03-08T08:26:30;91638.03;;;-145.37;90.46
13486;BME280;6815;59.336;17.998;2024-03-08T08:28:56;91696.59;;;-145.37;90.31
13486;BME280;6815;59.336;17.998;2024-03-08T08:31:22;91690.53;;;-145.37;90.36
13486;BME280;6815;59.336;17.998;2024-03-08T08:33:47;91670.34;;;-145.37;90.19
13486;BME280;6815;59.336;17.998;2024-03-08T08:36:15;91670.34;;;-145.37;90.27
13486;BME280;6815;59.336;17.998;2024-03-08T08:38:41;91652.16;;;-145.37;89.69
13486;BME280;6815;59.336;17.998;2024-03-08T08:41:09;91583.50;;;-145.37;89.44
13486;BME280;6815;59.336;17.998;2024-03-08T08:43:36;91660.25;;;-145.37;89.57
13486;BME280;6815;59.336;17.998;2024-03-08T08:46:02;91579.47;;;-145.37;89.25
13486;BME280;6815;59.336;17.998;2024-03-08T08:48:27;91646.09;;;-145.37;89.40
13486;BME280;6815;59.336;17.998;2024-03-08T08:50:54;91573.41;;;-145.37;89.03
13486;BME280;6815;59.336;17.998;2024-03-08T08:53:20;91510.81;;;-145.37;88.67
13486;BME280;6815;59.336;17.998;2024-03-08T08:55:47;91642.06;;;-145.37;88.52
13486;BME280;6815;59.336;17.998;2024-03-08T08:58:12;91575.44;;;-145.37;88.16
13486;BME280;6815;59.336;17.998;2024-03-08T09:00:40;91573.41;;;-145.37;88.03
13486;BME280;6815;59.336;17.998;2024-03-08T09:03:05;92173.22;;;-145.37;87.77
13486;BME280;6815;59.336;17.998;2024-03-08T09:05:32;91631.97;;;-145.37;87.57
13486;BME280;6815;59.336;17.998;2024-03-08T09:07:59;91577.44;;;-145.37;87.30
13486;BME280;6815;59.336;17.998;2024-03-08T09:10:25;91634.00;;;-145.37;87.08
13486;BME280;6815;59.336;17.998;2024-03-08T09:12:50;91452.25;;;-145.37;86.81
13486;BME280;6815;59.336;17.998;2024-03-08T09:15:16;91613.81;;;-145.37;86.48
13486;BME280;6815;59.336;17.998;2024-03-08T09:17:46;91611.78;;;-145.37;86.34
13486;BME280;6815;59.336;17.998;2024-03-08T09:20:12;91597.66;;;-145.37;86.50
13486;BME280;6815;59.336;17.998;2024-03-08T09:22:43;91510.81;;;-145.37;86.14
13486;BME280;6815;59.336;17.998;2024-03-08T09:25:09;91591.59;;;-145.37;85.97
13486;BME280;6815;59.336;17.998;2024-03-08T09:27:35;91561.31;;;-145.37;86.48
13486;BME280;6815;59.336;17.998;2024-03-08T09:30:00;91575.44;;;-145.37;85.58
13486;BME280;6815;59.336;17.998;2024-03-08T09:32:26;91502.75;;;-145.37;85.54
13486;BME280;6815;59.336;17.998;2024-03-08T09:34:52;91401.78;;;-145.37;85.10
13486;BME280;6815;59.336;17.998;2024-03-08T09:37:17;91583.50;;;-145.37;84.96
13486;BME280;6815;59.336;17.998;2024-03-08T09:39:44;91591.59;;;-145.37;83.23
13486;BME280;6815;59.336;17.998;2024-03-08T09:42:10;91537.06;;;-145.37;83.02
13486;BME280;6815;59.336;17.998;2024-03-08T09:44:44;91565.34;;;-145.37;82.78
13486;BME280;6815;59.336;17.998;2024-03-08T09:47:13;91577.44;;;-145.37;82.74
13486;BME280;6815;59.336;17.998;2024-03-08T09:49:39;91565.34;;;-145.37;83.20
13486;BME280;6815;59.336;17.998;2024-03-08T09:52:06;91476.50;;;-145.37;83.08
13486;BME280;6815;59.336;17.998;2024-03-08T09:54:32;91476.50;;;-145.37;82.09
13486;BME280;6815;59.336;17.998;2024-03-08T09:56:58;92199.47;;;-145.37;81.06
13486;BME280;6815;59.336;17.998;2024-03-08T09:59:23;91442.16;;;-145.37;81.33
13486;BME280;6815;59.336;17.998;2024-03-08T10:01:51;91371.50;;;-145.37;81.22
13486;BME280;6815;59.336;17.998;2024-03-08T10:04:17;92078.28;;;-145.37;80.48
13486;BME280;6815;59.336;17.998;2024-03-08T10:06:45;91452.25;;;-145.37;80.05
13486;BME280;6815;59.336;17.998;2024-03-08T10:09:12;91504.75;;;-145.37;80.15
13486;BME280;6815;59.336;17.998;2024-03-08T10:11:40;91518.91;;;-145.37;79.62
13486;BME280;6815;59.336;17.998;2024-03-08T10:14:05;91480.53;;;-145.37;79.54
13486;BME280;6815;59.336;17.998;2024-03-08T10:16:33;91484.56;;;-145.37;79.23
13486;BME280;6815;59.336;17.998;2024-03-08T10:19:00;91446.19;;;-145.37;79.31
13486;BME280;6815;59.336;17.998;2024-03-08T10:21:26;91531.00;;;-145.37;79.62
13486;BME280;6815;59.336;17.998;2024-03-08T10:23:52;91446.19;;;-145.37;79.31
13486;BME280;6815;59.336;17.998;2024-03-08T10:26:18;91175.63;;;-145.37;78.19
13486;BME280;6815;59.336;17.998;2024-03-08T10:28:50;91969.22;;;-145.37;78.78
13486;BME280;6815;59.336;17.998;2024-03-08T10:31:17;91529.00;;;-145.37;78.37
13486;BME280;6815;59.336;17.998;2024-03-08T10:33:43;91391.69;;;-145.37;77.79
13486;BME280;6815;59.336;17.998;2024-03-08T10:36:10;91490.63;;;-145.37;77.75
13486;BME280;6815;59.336;17.998;2024-03-08T10:38:42;91512.84;;;-145.37;77.59
13486;BME280;6815;59.336;17.998;2024-03-08T10:41:12;91482.53;;;-145.37;77.18
13486;BME280;6815;59.336;17.998;2024-03-08T10:43:52;91472.44;;;-145.37;76.86
13486;BME280;6815;59.336;17.998;2024-03-08T10:46:52;91375.53;;;-145.37;76.69
13486;BME280;6815;59.336;17.998;2024-03-08T10:49:26;91470.44;;;-145.37;75.98
13486;BME280;6815;59.336;17.998;2024-03-08T10:51:56;91411.88;;;-145.37;74.86
13486;BME280;6815;59.336;17.998;2024-03-08T10:54:25;91375.53;;;-145.37;75.28
13486;BME280;6815;59.336;17.998;2024-03-08T10:56:51;91474.47;;;-145.37;75.36
13486;BME280;6815;59.336;17.998;2024-03-08T10:59:18;91488.59;;;-145.37;75.00
13486;BME280;6815;59.336;17.998;2024-03-08T11:01:45;91393.69;;;-145.37;75.24
13486;BME280;6815;59.336;17.998;2024-03-08T11:04:11;91363.41;;;-145.37;73.14
13486;BME280;6815;59.336;17.998;2024-03-08T11:09:02;91783.44;;;-145.37;73.52
13486;BME280;6815;59.336;17.998;2024-03-08T11:11:32;91514.84;;;-145.37;73.14
13486;BME280;6815;59.336;17.998;2024-03-08T11:14:00;91462.34;;;-145.37;73.30
13486;BME280;6815;59.336;17.998;2024-03-08T11:19:00;91460.34;;;-145.37;71.35
13486;BME280;6815;59.336;17.998;2024-03-08T11:21:30;91411.88;;;-145.37;71.40
13486;BME280;6815;59.336;17.998;2024-03-08T11:24:06;91446.19;;;-145.37;69.89
13486;BME280;6815;59.336;17.998;2024-03-08T11:26:33;91387.63;;;-145.37;69.95
13486;BME280;6815;59.336;17.998;2024-03-08T11:32:12;91387.63;;;-145.37;69.81
13486;BME280;6815;59.336;17.998;2024-03-08T11:34:45;91377.53;;;-145.37;69.67
13486;BME280;6815;59.336;17.998;2024-03-08T11:37:15;92090.41;;;-145.37;69.84
13486;BME280;6815;59.336;17.998;2024-03-08T11:39:54;91371.50;;;-145.37;69.63
13486;BME280;6815;59.336;17.998;2024-03-08T11:42:25;91468.41;;;-145.37;69.93
13486;BME280;6815;59.336;17.998;2024-03-08T11:44:54;91365.44;;;-145.37;68.93
13486;BME280;6815;59.336;17.998;2024-03-08T11:47:20;91201.88;;;-145.37;68.71
13486;BME280;6815;59.336;17.998;2024-03-08T11:49:46;91407.84;;;-145.37;68.75
13486;BME280;6815;59.336;17.998;2024-03-08T11:52:15;91252.34;;;-145.37;68.28
13486;BME280;6815;59.336;17.998;2024-03-08T11:54:41;91296.78;;;-145.37;68.03
13486;BME280;6815;59.336;17.998;2024-03-08T11:57:06;91426.00;;;-145.37;68.28
13486;BME280;6815;59.336;17.998;2024-03-08T11:59:32;91294.75;;;-145.37;67.80
13486;BME280;6815;59.336;17.998;2024-03-08T12:02:05;91444.19;;;-145.37;68.04
13486;BME280;6815;59.336;17.998;2024-03-08T12:04:31;91355.34;;;-145.37;68.64
13486;BME280;6815;59.336;17.998;2024-03-08T12:07:00;91403.78;;;-145.37;68.24
13486;BME280;6815;59.336;17.998;2024-03-08T12:09:35;91375.53;;;-145.37;69.07
13486;BME280;6815;59.336;17.998;2024-03-08T12:12:02;91345.25;;;-145.37;68.46
13486;BME280;6815;59.336;17.998;2024-03-08T12:14:30;91405.81;;;-145.37;68.18
13486;BME280;6815;59.336;17.998;2024-03-08T12:16:55;91419.94;;;-145.37;67.97
13486;BME280;6815;59.336;17.998;2024-03-08T12:19:23;91401.78;;;-145.37;68.73
13486;BME280;6815;59.336;17.998;2024-03-08T12:21:49;91381.59;;;-145.37;68.28
13486;BME280;6815;59.336;17.998;2024-03-08T12:24:17;91288.69;;;-145.37;68.95
13486;BME280;6815;59.336;17.998;2024-03-08T12:26:47;91203.91;;;-145.37;69.32
13486;BME280;6815;59.336;17.998;2024-03-08T12:29:26;91371.50;;;-145.37;69.65
13486;BME280;6815;59.336;17.998;2024-03-08T12:32:00;91341.19;;;-145.37;69.70
13486;BME280;6815;59.336;17.998;2024-03-08T12:34:30;91403.78;;;-145.37;69.04
13486;BME280;6815;59.336;17.998;2024-03-08T12:36:58;91403.78;;;-145.37;69.54
13486;BME280;6815;59.336;17.998;2024-03-08T12:39:23;91367.44;;;-145.37;69.40
13486;BME280;6815;59.336;17.998;2024-03-08T12:41:53;91371.50;;;-145.37;70.04
13486;BME280;6815;59.336;17.998;2024-03-08T12:44:21;91401.78;;;-145.37;70.28
13486;BME280;6815;59.336;17.998;2024-03-08T12:46:47;91401.78;;;-145.37;70.25
13486;BME280;6815;59.336;17.998;2024-03-08T12:49:13;91403.78;;;-145.37;70.04
13486;BME280;6815;59.336;17.998;2024-03-08T12:51:45;91357.34;;;-145.37;70.06